createdAt,value
2019-05-30T00:00:17.498Z,10.88
2019-05-30T00:00:47.809Z,11.05
2019-05-30T00:01:22.337Z,9.58
2019-05-30T00:01:58.615Z,10.70
2019-05-30T00:02:33.987Z,9.95
2019-05-30T00:03:08.662Z,10.78
2019-05-30T00:03:43.840Z,9.93
2019-05-30T00:04:19.013Z,9.88
2019-05-30T00:04:54.087Z,10.93
2019-05-30T00:05:29.447Z,9.78
2019-05-30T00:06:04.717Z,10.75
2019-05-30T00:06:39.420Z,10.85
2019-05-30T00:07:14.545Z,11.18
2019-05-30T00:07:49.901Z,10.93
2019-05-30T00:08:24.774Z,11.10
2019-05-30T00:09:00.492Z,9.20
2019-05-30T00:09:36.284Z,10.30
2019-05-30T00:10:11.384Z,10.70
2019-05-30T00:10:46.581Z,9.95
2019-05-30T00:11:21.712Z,9.78
2019-05-30T00:11:56.632Z,9.85
2019-05-30T00:12:31.887Z,10.40
2019-05-30T00:13:07.096Z,9.45
2019-05-30T00:13:41.686Z,9.10
2019-05-30T00:14:16.869Z,8.75
2019-05-30T00:14:54.495Z,9.80
2019-05-30T00:15:29.132Z,9.70
2019-05-30T00:16:05.641Z,9.43
2019-05-30T00:16:41.326Z,10.15
2019-05-30T00:17:15.843Z,9.20
2019-05-30T00:17:51.024Z,10.53
2019-05-30T00:18:26.232Z,9.53
2019-05-30T00:19:00.941Z,10.50
2019-05-30T00:19:36.208Z,9.43
2019-05-30T00:20:11.744Z,9.45
2019-05-30T00:20:46.336Z,10.20
2019-05-30T00:21:21.501Z,8.48
2019-05-30T00:21:56.675Z,9.33
2019-05-30T00:22:31.320Z,10.38
2019-05-30T00:23:06.492Z,8.58
2019-05-30T00:23:41.688Z,10.40
2019-05-30T00:24:16.270Z,10.65
2019-05-30T00:24:51.511Z,9.00
2019-05-30T00:25:26.640Z,10.98
2019-05-30T00:26:01.472Z,10.50
2019-05-30T00:26:36.639Z,9.08
2019-05-30T00:27:11.864Z,11.70
2019-05-30T00:27:46.460Z,11.00
2019-05-30T00:28:21.646Z,10.63
2019-05-30T00:28:58.177Z,9.48
2019-05-30T00:29:32.950Z,10.60
2019-05-30T00:30:23.121Z,10.25
2019-05-30T00:30:45.550Z,9.08
2019-05-30T00:31:20.119Z,9.70
2019-05-30T00:31:55.503Z,11.12
2019-05-30T00:32:30.703Z,10.18
2019-05-30T00:33:05.313Z,9.90
2019-05-30T00:33:40.637Z,9.83
2019-05-30T00:34:15.936Z,12.00
2019-05-30T00:34:50.636Z,10.25
2019-05-30T00:35:25.747Z,10.53
2019-05-30T00:36:01.831Z,10.55
2019-05-30T00:36:36.988Z,10.55
2019-05-30T00:37:12.176Z,10.75
2019-05-30T00:37:47.360Z,11.48
2019-05-30T00:38:21.962Z,10.60
2019-05-30T00:38:57.680Z,10.58
2019-05-30T00:39:32.924Z,10.32
2019-05-30T00:40:08.918Z,10.45
2019-05-30T00:40:44.307Z,10.82
2019-05-30T00:41:19.915Z,10.68
2019-05-30T00:41:55.869Z,9.38
2019-05-30T00:42:31.231Z,9.43
2019-05-30T00:43:06.587Z,11.48
2019-05-30T00:43:41.132Z,10.00
2019-05-30T00:44:16.319Z,10.58
2019-05-30T00:44:51.501Z,10.38
2019-05-30T00:45:28.999Z,9.68
2019-05-30T00:46:04.278Z,10.10
2019-05-30T00:46:39.454Z,9.98
2019-05-30T00:47:14.098Z,9.50
2019-05-30T00:47:49.247Z,10.80
2019-05-30T00:48:24.362Z,10.28
2019-05-30T00:49:00.159Z,11.12
2019-05-30T00:49:35.390Z,10.45
2019-05-30T00:50:10.894Z,10.95
2019-05-30T00:50:45.443Z,10.75
2019-05-30T00:51:20.634Z,10.70
2019-05-30T00:51:56.443Z,10.82
2019-05-30T00:52:31.101Z,10.40
2019-05-30T00:53:07.017Z,10.43
2019-05-30T00:53:42.254Z,9.38
2019-05-30T00:54:16.863Z,10.68
2019-05-30T00:54:52.057Z,11.35
2019-05-30T00:55:27.393Z,10.32
2019-05-30T00:56:03.127Z,10.10
2019-05-30T00:56:38.351Z,10.30
2019-05-30T00:57:13.555Z,10.32
2019-05-30T00:57:48.091Z,10.82
2019-05-30T00:58:23.295Z,12.68
2019-05-30T00:58:58.772Z,10.20
2019-05-30T00:59:33.383Z,11.25
2019-05-30T01:00:08.800Z,11.90
2019-05-30T01:00:44.934Z,11.55
2019-05-30T01:01:19.529Z,12.60
2019-05-30T01:01:54.728Z,10.68
2019-05-30T01:02:29.854Z,10.93
2019-05-30T01:03:06.463Z,9.65
2019-05-30T01:03:41.173Z,11.20
2019-05-30T01:04:16.290Z,10.72
2019-05-30T01:04:50.901Z,10.28
2019-05-30T01:05:27.246Z,9.43
2019-05-30T01:06:02.971Z,10.15
2019-05-30T01:06:37.777Z,10.65
2019-05-30T01:07:12.993Z,11.05
2019-05-30T01:07:48.113Z,10.50
2019-05-30T01:08:22.730Z,11.05
2019-05-30T01:08:59.055Z,9.98
2019-05-30T01:09:34.317Z,10.78
2019-05-30T01:10:09.576Z,9.70
2019-05-30T01:10:44.775Z,10.65
2019-05-30T01:11:19.957Z,10.30
2019-05-30T01:11:54.541Z,11.40
2019-05-30T01:12:29.722Z,10.82
2019-05-30T01:13:05.241Z,11.25
2019-05-30T01:13:40.286Z,10.70
2019-05-30T01:14:15.477Z,10.45
2019-05-30T01:14:50.665Z,10.65
2019-05-30T01:15:25.264Z,12.05
2019-05-30T01:16:01.039Z,10.88
2019-05-30T01:16:36.332Z,10.95
2019-05-30T01:17:10.932Z,10.45
2019-05-30T01:17:46.113Z,12.00
2019-05-30T01:18:21.227Z,11.10
2019-05-30T01:18:56.935Z,10.53
2019-05-30T01:19:32.140Z,10.15
2019-05-30T01:20:07.799Z,10.10
2019-05-30T01:20:44.130Z,11.10
2019-05-30T01:21:19.296Z,10.43
2019-05-30T01:21:54.580Z,12.03
2019-05-30T01:22:29.267Z,10.72
2019-05-30T01:23:05.365Z,10.40
2019-05-30T01:23:41.589Z,10.30
2019-05-30T01:24:16.238Z,9.75
2019-05-30T01:24:51.528Z,10.80
2019-05-30T01:25:26.695Z,10.90
2019-05-30T01:26:01.419Z,10.08
2019-05-30T01:26:36.787Z,11.18
2019-05-30T01:27:12.107Z,10.53
2019-05-30T01:27:46.682Z,10.75
2019-05-30T01:28:21.869Z,10.95
2019-05-30T01:28:57.327Z,10.50
2019-05-30T01:29:31.964Z,11.00
2019-05-30T01:30:10.956Z,11.50
2019-05-30T01:30:58.838Z,10.70
2019-05-30T01:31:22.736Z,11.97
2019-05-30T01:31:57.848Z,11.20
2019-05-30T01:32:33.043Z,11.50
2019-05-30T01:33:08.090Z,11.95
2019-05-30T01:33:43.347Z,10.40
2019-05-30T01:34:18.527Z,10.35
2019-05-30T01:34:53.228Z,10.95
2019-05-30T01:35:28.395Z,11.57
2019-05-30T01:36:03.806Z,11.18
2019-05-30T01:36:38.500Z,11.00
2019-05-30T01:37:13.863Z,10.65
2019-05-30T01:37:49.061Z,12.37
2019-05-30T01:38:23.663Z,10.03
2019-05-30T01:38:59.606Z,11.80
2019-05-30T01:39:34.804Z,11.33
2019-05-30T01:40:10.116Z,12.05
2019-05-30T01:40:45.306Z,11.25
2019-05-30T01:41:20.894Z,12.07
2019-05-30T01:41:55.519Z,10.95
2019-05-30T01:42:30.727Z,10.43
2019-05-30T01:43:06.225Z,11.68
2019-05-30T01:43:40.847Z,11.70
2019-05-30T01:44:16.024Z,11.35
2019-05-30T01:44:51.192Z,11.30
2019-05-30T01:45:25.707Z,11.65
2019-05-30T01:46:02.023Z,11.43
2019-05-30T01:46:37.329Z,11.43
2019-05-30T01:47:11.902Z,11.57
2019-05-30T01:47:47.108Z,11.93
2019-05-30T01:48:22.348Z,11.33
2019-05-30T01:48:58.093Z,11.43
2019-05-30T01:49:33.401Z,12.05
2019-05-30T01:50:13.406Z,10.95
2019-05-30T01:50:48.076Z,10.98
2019-05-30T01:51:23.211Z,10.35
2019-05-30T01:52:17.649Z,11.28
2019-05-30T01:52:52.833Z,11.05
2019-05-30T01:53:28.011Z,11.08
2019-05-30T01:54:03.139Z,10.70
2019-05-30T01:54:37.655Z,10.80
2019-05-30T01:55:13.920Z,9.70
2019-05-30T01:55:49.086Z,10.43
2019-05-30T01:56:23.706Z,9.85
2019-05-30T01:57:00.463Z,10.85
2019-05-30T01:57:36.461Z,9.58
2019-05-30T01:58:11.021Z,10.75
2019-05-30T01:58:46.141Z,10.43
2019-05-30T01:59:21.246Z,10.70
2019-05-30T01:59:55.843Z,10.08
2019-05-30T02:00:41.102Z,10.15
2019-05-30T02:01:24.364Z,9.90
2019-05-30T02:01:52.641Z,10.05
2019-05-30T02:02:28.109Z,10.05
2019-05-30T02:03:03.293Z,11.50
2019-05-30T02:03:37.891Z,10.28
2019-05-30T02:04:13.088Z,11.25
2019-05-30T02:04:48.262Z,10.28
2019-05-30T02:05:22.987Z,9.60
2019-05-30T02:05:58.917Z,10.30
2019-05-30T02:06:37.912Z,10.05
2019-05-30T02:07:11.533Z,10.55
2019-05-30T02:07:46.821Z,10.15
2019-05-30T02:08:22.073Z,11.05
2019-05-30T02:08:56.691Z,10.15
2019-05-30T02:09:31.784Z,9.85
2019-05-30T02:10:09.746Z,11.70
2019-05-30T02:10:44.536Z,9.58
2019-05-30T02:11:19.735Z,10.80
2019-05-30T02:11:54.947Z,9.83
2019-05-30T02:12:29.532Z,10.38
2019-05-30T02:13:05.585Z,10.08
2019-05-30T02:13:40.949Z,10.65
2019-05-30T02:14:15.492Z,9.93
2019-05-30T02:14:50.758Z,10.25
2019-05-30T02:15:25.933Z,9.65
2019-05-30T02:16:01.576Z,9.60
2019-05-30T02:16:36.844Z,9.83
2019-05-30T02:17:11.956Z,10.60
2019-05-30T02:17:47.535Z,9.65
2019-05-30T02:18:22.736Z,9.88
2019-05-30T02:18:57.912Z,10.13
2019-05-30T02:19:33.665Z,9.45
2019-05-30T02:20:10.162Z,9.48
2019-05-30T02:20:45.452Z,10.38
2019-05-30T02:21:20.063Z,10.05
2019-05-30T02:21:55.241Z,9.48
2019-05-30T02:22:30.368Z,10.50
2019-05-30T02:23:06.130Z,9.80
2019-05-30T02:23:41.859Z,9.65
2019-05-30T02:24:17.064Z,10.50
2019-05-30T02:24:52.027Z,9.30
2019-05-30T02:25:32.891Z,10.08
2019-05-30T02:26:08.304Z,9.65
2019-05-30T02:26:43.003Z,10.23
2019-05-30T02:27:18.183Z,11.03
2019-05-30T02:27:53.684Z,10.00
2019-05-30T02:28:28.251Z,9.93
2019-05-30T02:29:04.195Z,9.70
2019-05-30T02:29:39.772Z,10.30
2019-05-30T02:30:15.251Z,9.58
2019-05-30T02:30:50.468Z,10.20
2019-05-30T02:31:38.475Z,10.63
2019-05-30T02:32:03.122Z,10.28
2019-05-30T02:32:38.692Z,9.50
2019-05-30T02:33:13.789Z,8.80
2019-05-30T02:33:48.320Z,10.00
2019-05-30T02:34:23.553Z,9.60
2019-05-30T02:35:00.711Z,10.30
2019-05-30T02:35:35.452Z,10.13
2019-05-30T02:36:12.513Z,10.53
2019-05-30T02:36:47.533Z,9.45
2019-05-30T02:37:22.120Z,9.73
2019-05-30T02:37:57.391Z,9.50
2019-05-30T02:38:32.617Z,9.40
2019-05-30T02:39:09.844Z,9.15
2019-05-30T02:39:45.094Z,9.15
2019-05-30T02:40:20.609Z,10.20
2019-05-30T02:40:55.211Z,10.70
2019-05-30T02:41:30.463Z,9.90
2019-05-30T02:42:07.422Z,10.78
2019-05-30T02:42:42.156Z,9.30
2019-05-30T02:43:17.407Z,8.83
2019-05-30T02:43:52.602Z,9.85
2019-05-30T02:44:27.123Z,9.55
2019-05-30T02:45:03.732Z,9.48
2019-05-30T02:45:39.017Z,9.00
2019-05-30T02:46:13.605Z,9.60
2019-05-30T02:46:48.781Z,9.50
2019-05-30T02:47:23.944Z,9.45
2019-05-30T02:47:58.456Z,9.13
2019-05-30T02:48:33.629Z,9.48
2019-05-30T02:49:11.471Z,9.43
2019-05-30T02:49:45.049Z,10.03
2019-05-30T02:50:20.595Z,9.73
2019-05-30T02:50:55.749Z,8.98
2019-05-30T02:51:30.270Z,9.35
2019-05-30T02:52:06.760Z,8.10
2019-05-30T02:52:43.210Z,9.60
2019-05-30T02:53:17.813Z,8.48
2019-05-30T02:53:53.001Z,8.90
2019-05-30T02:54:28.229Z,10.28
2019-05-30T02:55:03.989Z,9.33
2019-05-30T02:55:40.040Z,8.83
2019-05-30T02:56:15.202Z,9.00
2019-05-30T02:56:49.729Z,9.30
2019-05-30T02:57:24.953Z,8.50
2019-05-30T02:58:01.302Z,8.85
2019-05-30T02:58:36.017Z,9.25
2019-05-30T02:59:13.381Z,9.10
2019-05-30T02:59:48.016Z,8.90
2019-05-30T03:00:25.683Z,9.65
2019-05-30T03:01:01.858Z,9.60
2019-05-30T03:01:55.994Z,9.48
2019-05-30T03:02:17.111Z,9.48
2019-05-30T03:02:50.698Z,10.00
2019-05-30T03:03:25.904Z,8.50
2019-05-30T03:04:01.905Z,8.00
2019-05-30T03:04:37.285Z,8.75
2019-05-30T03:05:31.970Z,8.85
2019-05-30T03:06:08.624Z,9.28
2019-05-30T03:06:43.581Z,8.28
2019-05-30T03:07:18.835Z,8.68
2019-05-30T03:07:53.410Z,8.18
2019-05-30T03:08:28.614Z,9.08
2019-05-30T03:09:06.155Z,8.58
2019-05-30T03:09:41.111Z,8.63
2019-05-30T03:10:17.039Z,7.80
2019-05-30T03:10:52.898Z,8.88
2019-05-30T03:11:27.631Z,8.83
2019-05-30T03:12:04.109Z,8.85
2019-05-30T03:12:39.962Z,8.78
2019-05-30T03:13:14.720Z,9.03
2019-05-30T03:13:53.771Z,8.25
2019-05-30T03:14:29.015Z,8.28
2019-05-30T03:15:09.545Z,9.00
2019-05-30T03:15:44.322Z,8.35
2019-05-30T03:16:19.463Z,8.93
2019-05-30T03:16:54.036Z,8.40
2019-05-30T03:17:29.573Z,8.15
2019-05-30T03:18:07.311Z,9.08
2019-05-30T03:18:41.152Z,9.15
2019-05-30T03:19:16.409Z,7.90
2019-05-30T03:19:51.532Z,8.65
2019-05-30T03:20:26.260Z,8.48
2019-05-30T03:21:03.151Z,8.28
2019-05-30T03:21:38.476Z,8.40
2019-05-30T03:22:13.993Z,9.38
2019-05-30T03:22:49.340Z,8.33
2019-05-30T03:23:24.903Z,9.28
2019-05-30T03:23:59.497Z,9.65
2019-05-30T03:24:34.726Z,8.70
2019-05-30T03:25:12.978Z,8.75
2019-05-30T03:25:46.345Z,8.00
2019-05-30T03:26:21.587Z,7.60
2019-05-30T03:26:56.819Z,8.10
2019-05-30T03:27:31.560Z,8.45
2019-05-30T03:28:07.603Z,8.15
2019-05-30T03:28:43.661Z,8.03
2019-05-30T03:29:18.328Z,9.20
2019-05-30T03:29:53.484Z,7.25
2019-05-30T03:30:29.919Z,8.80
2019-05-30T03:31:14.219Z,8.05
2019-05-30T03:31:45.549Z,8.30
2019-05-30T03:33:07.631Z,9.08
2019-05-30T03:33:40.765Z,8.23
2019-05-30T03:34:22.887Z,7.62
2019-05-30T03:34:47.301Z,8.88
2019-05-30T03:35:29.416Z,7.50
2019-05-30T03:35:59.691Z,7.90
2019-05-30T03:36:34.245Z,8.03
2019-05-30T03:37:18.900Z,7.53
2019-05-30T03:37:46.439Z,7.62
2019-05-30T03:38:21.020Z,8.68
2019-05-30T03:38:56.181Z,7.70
2019-05-30T03:39:31.337Z,8.20
2019-05-30T03:40:07.229Z,8.90
2019-05-30T03:40:42.454Z,8.43
2019-05-30T03:41:17.589Z,8.65
2019-05-30T03:41:52.171Z,7.65
2019-05-30T03:42:27.359Z,8.23
2019-05-30T03:43:04.104Z,8.58
2019-05-30T03:43:39.076Z,8.65
2019-05-30T03:44:15.627Z,8.20
2019-05-30T03:44:51.469Z,7.58
2019-05-30T03:45:27.303Z,9.73
2019-05-30T03:46:04.069Z,8.10
2019-05-30T03:46:42.832Z,8.28
2019-05-30T03:47:20.347Z,8.88
2019-05-30T03:47:58.694Z,8.38
2019-05-30T03:48:35.799Z,8.70
2019-05-30T03:49:15.037Z,8.80
2019-05-30T03:49:51.779Z,8.58
2019-05-30T03:50:30.056Z,9.00
2019-05-30T03:51:08.871Z,8.25
2019-05-30T03:51:45.627Z,8.33
2019-05-30T03:52:21.874Z,7.42
2019-05-30T03:52:56.520Z,7.80
2019-05-30T03:53:31.685Z,7.75
2019-05-30T03:54:09.305Z,8.75
2019-05-30T03:54:44.097Z,8.20
2019-05-30T03:55:20.705Z,8.35
2019-05-30T03:55:59.352Z,7.97
2019-05-30T03:56:39.890Z,9.13
2019-05-30T03:57:18.230Z,8.48
2019-05-30T03:58:02.586Z,7.72
2019-05-30T03:58:49.111Z,6.87
2019-05-30T03:59:39.142Z,9.08
2019-05-30T04:00:45.593Z,7.33
2019-05-30T04:01:40.290Z,7.55
2019-05-30T04:02:26.737Z,7.85
2019-05-30T04:03:06.660Z,7.87
2019-05-30T04:04:14.496Z,7.53
2019-05-30T04:05:09.263Z,7.53
2019-05-30T04:05:50.764Z,9.05
2019-05-30T04:06:34.090Z,7.95
2019-05-30T04:07:19.567Z,8.40
2019-05-30T04:07:56.917Z,8.53
2019-05-30T04:08:34.565Z,8.23
2019-05-30T04:09:21.253Z,8.63
2019-05-30T04:09:52.745Z,7.37
2019-05-30T04:10:33.177Z,8.75
2019-05-30T04:11:12.522Z,8.83
2019-05-30T04:11:54.401Z,8.50
2019-05-30T04:12:44.122Z,8.60
2019-05-30T04:13:25.165Z,8.60
2019-05-30T04:14:03.396Z,8.38
2019-05-30T04:14:41.071Z,8.90
2019-05-30T04:15:36.268Z,7.15
2019-05-30T04:16:13.379Z,6.92
2019-05-30T04:16:47.649Z,7.90
2019-05-30T04:17:22.835Z,9.25
2019-05-30T04:17:57.996Z,7.60
2019-05-30T04:18:32.510Z,8.50
2019-05-30T04:19:08.112Z,9.38
2019-05-30T04:19:43.299Z,7.67
2019-05-30T04:20:22.561Z,7.72
2019-05-30T04:20:54.693Z,8.38
2019-05-30T04:21:29.849Z,8.65
2019-05-30T04:22:04.669Z,8.98
2019-05-30T04:22:40.116Z,8.58
2019-05-30T04:23:16.659Z,8.10
2019-05-30T04:23:51.544Z,7.62
2019-05-30T04:24:26.673Z,8.13
2019-05-30T04:25:01.848Z,8.08
2019-05-30T04:25:36.440Z,8.25
2019-05-30T04:26:11.605Z,8.63
2019-05-30T04:26:46.706Z,7.85
2019-05-30T04:27:21.565Z,8.43
2019-05-30T04:27:56.725Z,8.53
2019-05-30T04:28:31.827Z,8.58
2019-05-30T04:29:07.981Z,7.92
2019-05-30T04:29:43.216Z,8.70
2019-05-30T04:30:18.634Z,8.30
2019-05-30T04:30:53.267Z,8.35
2019-05-30T04:31:28.434Z,8.53
2019-05-30T04:32:03.557Z,7.53
2019-05-30T04:32:38.151Z,7.62
2019-05-30T04:33:22.551Z,9.13
2019-05-30T04:33:50.118Z,9.10
2019-05-30T04:34:24.753Z,8.60
2019-05-30T04:35:00.056Z,8.90
2019-05-30T04:35:35.277Z,9.45
2019-05-30T04:36:10.563Z,7.92
2019-05-30T04:36:45.843Z,8.88
2019-05-30T04:37:21.010Z,8.65
2019-05-30T04:37:55.590Z,7.83
2019-05-30T04:38:30.759Z,7.65
2019-05-30T04:39:08.767Z,9.33
2019-05-30T04:39:43.602Z,8.25
2019-05-30T04:40:19.687Z,8.00
2019-05-30T04:40:54.899Z,8.83
2019-05-30T04:41:29.413Z,8.58
2019-05-30T04:42:04.900Z,8.43
2019-05-30T04:42:40.061Z,7.90
2019-05-30T04:43:15.502Z,9.38
2019-05-30T04:44:12.005Z,8.60
2019-05-30T04:44:47.664Z,8.45
2019-05-30T04:45:27.376Z,8.43
2019-05-30T04:45:59.069Z,8.53
2019-05-30T04:46:34.223Z,8.10
2019-05-30T04:47:10.014Z,8.93
2019-05-30T04:47:45.431Z,9.05
2019-05-30T04:48:21.239Z,8.40
2019-05-30T04:48:56.133Z,7.60
2019-05-30T04:49:31.313Z,8.60
2019-05-30T04:50:09.967Z,8.63
2019-05-30T04:50:44.790Z,9.03
2019-05-30T04:51:21.760Z,8.18
2019-05-30T04:51:56.862Z,8.10
2019-05-30T04:52:31.447Z,8.40
2019-05-30T04:53:06.626Z,8.00
2019-05-30T04:53:41.719Z,8.18
2019-05-30T04:54:16.865Z,8.68
2019-05-30T04:54:53.051Z,8.18
2019-05-30T04:55:28.248Z,8.45
2019-05-30T04:56:02.780Z,8.15
2019-05-30T04:56:37.996Z,8.80
2019-05-30T04:57:14.956Z,8.65
2019-05-30T04:57:49.736Z,8.75
2019-05-30T04:58:24.983Z,8.65
2019-05-30T04:59:00.164Z,8.70
2019-05-30T04:59:34.678Z,9.35
2019-05-30T05:00:10.770Z,8.80
2019-05-30T05:00:45.949Z,9.08
2019-05-30T05:01:22.008Z,8.75
2019-05-30T05:01:57.455Z,9.35
2019-05-30T05:02:32.674Z,9.95
2019-05-30T05:03:07.203Z,8.90
2019-05-30T05:03:46.271Z,9.35
2019-05-30T05:04:19.518Z,8.50
2019-05-30T05:04:54.127Z,9.73
2019-05-30T05:05:29.300Z,9.03
2019-05-30T05:06:04.473Z,9.80
2019-05-30T05:06:39.116Z,9.10
2019-05-30T05:07:15.564Z,9.55
2019-05-30T05:07:50.974Z,9.65
2019-05-30T05:08:25.576Z,9.50
2019-05-30T05:09:00.733Z,9.10
2019-05-30T05:09:35.922Z,9.20
2019-05-30T05:10:12.034Z,9.70
2019-05-30T05:10:47.340Z,9.25
2019-05-30T05:11:25.136Z,9.45
2019-05-30T05:11:58.784Z,8.80
2019-05-30T05:12:34.026Z,11.03
2019-05-30T05:13:09.258Z,9.70
2019-05-30T05:13:43.850Z,9.35
2019-05-30T05:14:20.447Z,9.60
2019-05-30T05:14:55.817Z,10.05
2019-05-30T05:15:30.417Z,10.55
2019-05-30T05:16:21.806Z,9.83
2019-05-30T05:16:42.413Z,10.58
2019-05-30T05:17:17.148Z,9.70
2019-05-30T05:17:52.319Z,8.78
2019-05-30T05:18:27.492Z,10.32
2019-05-30T05:19:02.096Z,9.60
2019-05-30T05:19:37.355Z,9.90
2019-05-30T05:20:13.129Z,9.08
2019-05-30T05:20:47.810Z,8.90
2019-05-30T05:21:23.180Z,9.10
2019-05-30T05:21:58.404Z,8.78
2019-05-30T05:22:32.995Z,9.95
2019-05-30T05:23:08.100Z,9.48
2019-05-30T05:23:44.492Z,8.55
2019-05-30T05:24:19.425Z,9.18
2019-05-30T05:24:55.042Z,9.23
2019-05-30T05:25:30.204Z,10.38
2019-05-30T05:26:04.951Z,9.03
2019-05-30T05:26:40.122Z,10.05
2019-05-30T05:27:15.569Z,9.05
2019-05-30T05:27:50.243Z,8.78
2019-05-30T05:28:25.363Z,11.20
2019-05-30T05:29:00.559Z,9.88
2019-05-30T05:29:35.205Z,9.60
2019-05-30T05:30:11.980Z,10.35
2019-05-30T05:30:47.251Z,10.08
2019-05-30T05:31:22.484Z,10.53
2019-05-30T05:31:57.690Z,9.93
2019-05-30T05:32:32.784Z,8.90
2019-05-30T05:33:07.328Z,10.23
2019-05-30T05:33:55.760Z,9.43
2019-05-30T05:34:20.620Z,9.63
2019-05-30T05:34:55.377Z,9.88
2019-05-30T05:35:30.615Z,10.48
2019-05-30T05:36:05.772Z,10.85
2019-05-30T05:36:40.301Z,9.60
2019-05-30T05:37:16.921Z,10.72
2019-05-30T05:37:52.238Z,10.75
2019-05-30T05:38:28.410Z,10.18
2019-05-30T05:39:04.379Z,9.33
2019-05-30T05:39:39.659Z,11.53
2019-05-30T05:40:15.808Z,9.43
2019-05-30T05:40:51.203Z,10.50
2019-05-30T05:41:26.461Z,9.45
2019-05-30T05:42:01.082Z,9.50
2019-05-30T05:42:36.324Z,9.18
2019-05-30T05:43:11.698Z,10.50
2019-05-30T05:43:46.233Z,9.53
2019-05-30T05:44:22.461Z,10.08
2019-05-30T05:44:57.711Z,10.58
2019-05-30T05:45:32.363Z,10.28
2019-05-30T05:46:07.531Z,11.12
2019-05-30T05:46:42.661Z,10.72
2019-05-30T05:47:18.382Z,9.90
2019-05-30T05:47:53.774Z,9.28
2019-05-30T05:48:28.950Z,10.28
2019-05-30T05:49:03.542Z,10.20
2019-05-30T05:49:39.086Z,10.60
2019-05-30T05:50:14.696Z,10.53
2019-05-30T05:50:49.311Z,10.80
2019-05-30T05:51:24.863Z,9.68
2019-05-30T05:52:00.047Z,11.55
2019-05-30T05:52:34.687Z,9.60
2019-05-30T05:53:09.789Z,10.50
2019-05-30T05:53:45.013Z,9.60
2019-05-30T05:54:20.798Z,10.48
2019-05-30T05:54:55.985Z,11.33
2019-05-30T05:55:31.175Z,10.43
2019-05-30T05:56:05.806Z,10.45
2019-05-30T05:56:40.933Z,10.88
2019-05-30T05:57:16.760Z,10.82
2019-05-30T05:57:51.359Z,11.38
2019-05-30T05:58:26.599Z,10.78
2019-05-30T05:59:01.839Z,9.68
2019-05-30T05:59:36.416Z,10.15
2019-05-30T06:00:11.925Z,10.58
2019-05-30T06:00:47.050Z,10.28
2019-05-30T06:01:23.281Z,10.50
2019-05-30T06:01:58.582Z,10.30
2019-05-30T06:02:33.694Z,10.63
2019-05-30T06:03:08.299Z,9.85
2019-05-30T06:03:43.875Z,9.70
2019-05-30T06:04:19.167Z,10.30
2019-05-30T06:04:53.775Z,9.78
2019-05-30T06:05:28.894Z,10.98
2019-05-30T06:06:04.091Z,9.93
2019-05-30T06:06:38.680Z,10.85
2019-05-30T06:07:13.789Z,10.18
2019-05-30T06:07:48.972Z,10.13
2019-05-30T06:08:23.727Z,10.35
2019-05-30T06:08:58.977Z,10.15
2019-05-30T06:09:34.110Z,10.05
2019-05-30T06:10:08.829Z,10.05
2019-05-30T06:10:44.138Z,9.95
2019-05-30T06:11:20.490Z,10.00
2019-05-30T06:11:55.153Z,10.15
2019-05-30T06:12:30.332Z,9.90
2019-05-30T06:13:05.466Z,9.58
2019-05-30T06:13:40.063Z,9.20
2019-05-30T06:14:15.275Z,9.75
2019-05-30T06:14:50.461Z,10.60
2019-05-30T06:15:25.763Z,10.43
2019-05-30T06:16:00.992Z,9.48
2019-05-30T06:16:36.315Z,10.58
2019-05-30T06:17:10.844Z,9.98
2019-05-30T06:17:46.018Z,9.75
2019-05-30T06:18:22.256Z,9.78
2019-05-30T06:18:56.900Z,10.08
2019-05-30T06:19:45.342Z,9.38
2019-05-30T06:20:09.315Z,10.60
2019-05-30T06:20:43.904Z,10.35
2019-05-30T06:21:19.222Z,9.10
2019-05-30T06:21:54.793Z,9.93
2019-05-30T06:22:29.356Z,9.98
2019-05-30T06:23:04.600Z,10.08
2019-05-30T06:23:39.810Z,11.43
2019-05-30T06:24:14.733Z,9.53
2019-05-30T06:24:49.978Z,10.13
2019-05-30T06:25:29.858Z,10.10
2019-05-30T06:26:01.389Z,9.33
2019-05-30T06:26:36.557Z,10.05
2019-05-30T06:27:11.746Z,10.18
2019-05-30T06:27:46.350Z,8.13
2019-05-30T06:28:22.040Z,8.65
2019-05-30T06:28:57.416Z,9.85
2019-05-30T06:29:32.028Z,9.23
2019-05-30T06:30:09.046Z,9.15
2019-05-30T06:30:44.296Z,8.03
2019-05-30T06:31:18.911Z,8.80
2019-05-30T06:31:54.504Z,9.50
2019-05-30T06:32:29.780Z,9.43
2019-05-30T06:33:04.398Z,9.25
2019-05-30T06:33:39.885Z,8.23
2019-05-30T06:34:30.152Z,8.53
2019-05-30T06:34:52.268Z,9.33
2019-05-30T06:35:27.572Z,9.45
2019-05-30T06:36:02.781Z,8.98
2019-05-30T06:36:37.322Z,10.00
2019-05-30T06:37:12.444Z,9.80
2019-05-30T06:37:47.623Z,9.75
2019-05-30T06:38:23.129Z,8.33
2019-05-30T06:38:58.512Z,9.30
2019-05-30T06:39:33.693Z,7.80
2019-05-30T06:40:10.053Z,9.23
2019-05-30T06:40:45.232Z,7.83
2019-05-30T06:41:21.414Z,10.20
2019-05-30T06:41:56.103Z,8.25
2019-05-30T06:42:31.271Z,8.45
2019-05-30T06:43:06.371Z,9.20
2019-05-30T06:43:40.912Z,9.33
2019-05-30T06:44:16.158Z,9.30
2019-05-30T06:44:51.336Z,8.35
2019-05-30T06:45:26.814Z,8.75
2019-05-30T06:46:02.098Z,8.35
2019-05-30T06:46:37.264Z,8.30
2019-05-30T06:47:11.904Z,8.83
2019-05-30T06:47:47.067Z,8.18
2019-05-30T06:48:22.594Z,8.53
2019-05-30T06:48:57.251Z,8.40
2019-05-30T06:49:32.419Z,8.38
2019-05-30T06:50:08.639Z,9.50
2019-05-30T06:50:43.243Z,9.50
2019-05-30T06:51:18.342Z,8.95
2019-05-30T06:51:53.453Z,9.03
2019-05-30T06:52:29.161Z,9.28
2019-05-30T06:53:04.475Z,7.95
2019-05-30T06:53:39.868Z,9.05
2019-05-30T06:54:14.489Z,9.33
2019-05-30T06:54:49.668Z,8.30
2019-05-30T06:55:25.206Z,8.93
2019-05-30T06:55:59.986Z,9.80
2019-05-30T06:56:35.149Z,8.60
2019-05-30T06:57:10.361Z,9.40
2019-05-30T06:57:44.947Z,9.45
2019-05-30T06:58:35.312Z,8.30
2019-05-30T06:58:57.024Z,8.15
2019-05-30T06:59:31.924Z,7.90
2019-05-30T07:00:08.640Z,8.83
2019-05-30T07:00:43.843Z,7.92
2019-05-30T07:01:18.814Z,8.48
2019-05-30T07:01:54.114Z,8.00
2019-05-30T07:02:30.464Z,8.38
2019-05-30T07:03:05.300Z,8.45
2019-05-30T07:03:40.805Z,8.40
2019-05-30T07:04:16.601Z,9.00
2019-05-30T07:04:52.902Z,9.25
2019-05-30T07:05:29.936Z,7.55
2019-05-30T07:06:05.661Z,8.83
2019-05-30T07:06:40.878Z,8.08
2019-05-30T07:07:16.415Z,8.20
2019-05-30T07:07:52.017Z,9.05
2019-05-30T07:08:26.864Z,8.80
2019-05-30T07:09:02.045Z,8.35
2019-05-30T07:09:37.208Z,8.35
2019-05-30T07:10:12.696Z,8.30
2019-05-30T07:10:47.861Z,8.35
2019-05-30T07:11:22.984Z,8.13
2019-05-30T07:11:57.562Z,9.25
2019-05-30T07:12:33.244Z,7.95
2019-05-30T07:13:08.410Z,7.85
2019-05-30T07:13:43.113Z,7.55
2019-05-30T07:14:18.295Z,7.05
2019-05-30T07:14:53.489Z,8.53
2019-05-30T07:15:29.188Z,7.87
2019-05-30T07:16:04.728Z,8.63
2019-05-30T07:16:39.919Z,7.05
2019-05-30T07:17:14.456Z,7.80
2019-05-30T07:17:49.641Z,7.90
2019-05-30T07:18:25.409Z,9.80
2019-05-30T07:19:00.132Z,7.58
2019-05-30T07:19:37.737Z,7.37
2019-05-30T07:20:13.445Z,8.00
2019-05-30T07:20:48.021Z,7.40
2019-05-30T07:21:23.537Z,7.00
2019-05-30T07:21:58.757Z,6.83
2019-05-30T07:22:33.879Z,7.22
2019-05-30T07:23:11.114Z,8.05
2019-05-30T07:23:46.299Z,7.47
2019-05-30T07:24:23.669Z,8.18
2019-05-30T07:24:57.772Z,7.72
2019-05-30T07:25:34.108Z,7.22
2019-05-30T07:26:09.174Z,7.05
2019-05-30T07:26:44.339Z,7.10
2019-05-30T07:27:19.802Z,7.90
2019-05-30T07:27:54.378Z,6.55
2019-05-30T07:28:29.918Z,7.72
2019-05-30T07:29:05.752Z,7.45
2019-05-30T07:29:40.328Z,7.17
2019-05-30T07:30:16.157Z,7.65
2019-05-30T07:30:51.283Z,9.15
2019-05-30T07:31:26.100Z,8.83
2019-05-30T07:32:01.447Z,8.28
2019-05-30T07:32:36.660Z,8.05
2019-05-30T07:33:11.264Z,8.45
2019-05-30T07:33:48.984Z,7.22
2019-05-30T07:34:23.899Z,7.17
2019-05-30T07:35:06.861Z,7.50
2019-05-30T07:35:35.429Z,7.00
2019-05-30T07:36:10.672Z,7.28
2019-05-30T07:36:45.257Z,7.75
2019-05-30T07:37:20.433Z,6.60
2019-05-30T07:37:55.608Z,6.47
2019-05-30T07:38:30.502Z,6.60
2019-05-30T07:39:08.154Z,6.30
2019-05-30T07:39:43.278Z,6.12
2019-05-30T07:40:19.978Z,6.75
2019-05-30T07:40:55.226Z,6.65
2019-05-30T07:41:30.684Z,6.47
2019-05-30T07:42:06.782Z,7.00
2019-05-30T07:42:42.171Z,6.22
2019-05-30T07:43:17.347Z,5.83
2019-05-30T07:43:51.992Z,6.00
2019-05-30T07:44:27.180Z,5.80
2019-05-30T07:45:02.740Z,6.17
2019-05-30T07:45:37.321Z,6.40
2019-05-30T07:46:12.434Z,6.37
2019-05-30T07:46:47.648Z,6.00
2019-05-30T07:47:22.282Z,6.20
2019-05-30T07:47:57.459Z,6.05
2019-05-30T07:48:32.567Z,5.92
2019-05-30T07:49:07.139Z,6.00
2019-05-30T07:49:42.488Z,6.22
2019-05-30T07:50:17.919Z,5.78
2019-05-30T07:50:52.504Z,5.53
2019-05-30T07:51:28.473Z,5.17
2019-05-30T07:52:03.731Z,6.30